createdAt,value
2018-03-15T00:01:25.947Z,17.23
2018-03-15T00:03:53.608Z,13.70
2018-03-15T00:06:21.220Z,16.20
2018-03-15T00:08:48.793Z,15.53
2018-03-15T00:11:16.590Z,16.97
2018-03-15T00:13:44.217Z,18.07
2018-03-15T00:16:11.777Z,16.30
2018-03-15T00:18:39.349Z,15.53
2018-03-15T00:21:07.031Z,15.50
2018-03-15T00:23:34.699Z,17.13
2018-03-15T00:26:02.257Z,28.53
2018-03-15T00:28:30.024Z,18.63
2018-03-15T00:30:57.606Z,17.00
2018-03-15T00:33:25.352Z,17.50
2018-03-15T00:35:52.975Z,16.37
2018-03-15T00:38:20.571Z,13.80
2018-03-15T00:40:48.329Z,15.90
2018-03-15T00:43:16.172Z,15.23
2018-03-15T00:45:43.749Z,15.73
2018-03-15T00:48:11.532Z,15.60
2018-03-15T00:50:39.385Z,15.87
2018-03-15T00:53:07.110Z,14.40
2018-03-15T00:55:34.786Z,14.57
2018-03-15T00:58:02.405Z,16.20
2018-03-15T01:00:30.002Z,14.50
2018-03-15T01:02:57.587Z,17.93
2018-03-15T01:05:25.202Z,13.80
2018-03-15T01:07:52.828Z,14.80
2018-03-15T01:10:20.492Z,15.20
2018-03-15T01:12:48.154Z,13.90
2018-03-15T01:15:15.729Z,14.77
2018-03-15T01:17:43.380Z,13.53
2018-03-15T01:20:10.994Z,12.23
2018-03-15T01:22:38.639Z,13.77
2018-03-15T01:25:06.215Z,13.80
2018-03-15T01:27:33.832Z,14.03
2018-03-15T01:30:01.576Z,13.70
2018-03-15T01:32:29.160Z,14.57
2018-03-15T01:34:56.752Z,15.57
2018-03-15T01:37:24.402Z,12.83
2018-03-15T01:39:51.975Z,14.83
2018-03-15T01:42:19.672Z,14.70
2018-03-15T01:44:47.239Z,15.23
2018-03-15T01:47:15.004Z,15.57
2018-03-15T01:49:42.624Z,15.63
2018-03-15T01:52:10.204Z,13.27
2018-03-15T01:54:37.792Z,10.60
2018-03-15T01:57:05.449Z,10.20
2018-03-15T01:59:33.124Z,10.23
2018-03-15T02:02:00.953Z,11.57
2018-03-15T02:04:28.638Z,11.57
2018-03-15T02:06:56.314Z,9.90
2018-03-15T02:09:24.030Z,10.93
2018-03-15T02:11:51.840Z,10.63
2018-03-15T02:14:19.420Z,12.30
2018-03-15T02:16:46.984Z,11.03
2018-03-15T02:19:14.815Z,10.63
2018-03-15T02:21:42.479Z,11.70
2018-03-15T02:24:10.150Z,11.50
2018-03-15T02:26:37.814Z,12.57
2018-03-15T02:29:05.386Z,11.80
2018-03-15T02:31:33.133Z,12.80
2018-03-15T02:34:00.744Z,9.13
2018-03-15T02:36:28.324Z,11.87
2018-03-15T02:38:55.906Z,12.00
2018-03-15T02:41:23.518Z,12.17
2018-03-15T02:43:51.251Z,11.90
2018-03-15T02:46:18.892Z,12.07
2018-03-15T02:48:46.500Z,10.70
2018-03-15T02:51:14.224Z,11.60
2018-03-15T02:53:41.879Z,11.40
2018-03-15T02:56:09.486Z,12.37
2018-03-15T02:58:37.211Z,10.80
2018-03-15T03:01:04.792Z,10.77
2018-03-15T03:03:32.545Z,10.00
2018-03-15T03:06:00.115Z,10.83
2018-03-15T03:08:27.858Z,9.20
2018-03-15T03:10:55.478Z,11.47
2018-03-15T03:13:23.198Z,10.27
2018-03-15T03:15:50.845Z,9.87
2018-03-15T03:18:18.462Z,10.73
2018-03-15T03:20:46.036Z,8.40
2018-03-15T03:23:13.609Z,10.23
2018-03-15T03:25:41.225Z,11.27
2018-03-15T03:28:08.797Z,10.30
2018-03-15T03:30:36.393Z,11.53
2018-03-15T03:33:04.014Z,12.60
2018-03-15T03:35:31.589Z,11.00
2018-03-15T03:37:59.173Z,9.17
2018-03-15T03:40:26.855Z,10.37
2018-03-15T03:42:54.436Z,11.97
2018-03-15T03:45:22.175Z,10.27
2018-03-15T03:47:49.841Z,12.10
2018-03-15T03:50:17.409Z,9.70
2018-03-15T03:52:44.976Z,9.77
2018-03-15T03:55:12.592Z,10.97
2018-03-15T03:57:40.172Z,10.40
2018-03-15T04:00:07.972Z,10.13
2018-03-15T04:02:35.569Z,10.60
2018-03-15T04:05:03.278Z,9.43
2018-03-15T04:07:30.888Z,11.93
2018-03-15T04:09:58.501Z,11.30
2018-03-15T04:12:26.071Z,10.30
2018-03-15T04:14:53.636Z,11.63
2018-03-15T04:17:21.386Z,11.90
2018-03-15T04:19:48.961Z,11.00
2018-03-15T04:22:16.529Z,11.13
2018-03-15T04:24:44.131Z,12.07
2018-03-15T04:27:11.708Z,11.37
2018-03-15T04:29:39.288Z,12.53
2018-03-15T04:32:06.907Z,14.07
2018-03-15T04:34:34.617Z,14.67
2018-03-15T04:37:02.270Z,16.47
2018-03-15T04:39:30.141Z,15.13
2018-03-15T04:41:57.716Z,14.37
2018-03-15T04:44:25.471Z,15.10
2018-03-15T04:46:53.133Z,13.93
2018-03-15T04:49:20.798Z,13.00
2018-03-15T04:51:48.364Z,15.80
2018-03-15T04:54:16.328Z,14.07
2018-03-15T04:56:43.972Z,11.80
2018-03-15T04:59:11.633Z,14.17
2018-03-15T05:01:39.236Z,13.70
2018-03-15T05:04:06.815Z,16.60
2018-03-15T05:06:34.388Z,15.40
2018-03-15T05:09:02.012Z,15.10
2018-03-15T05:11:29.745Z,14.10
2018-03-15T05:13:57.314Z,14.93
2018-03-15T05:16:24.933Z,16.03
2018-03-15T05:18:52.499Z,16.47
2018-03-15T05:21:20.080Z,15.03
2018-03-15T05:23:47.698Z,17.60
2018-03-15T05:26:15.267Z,15.30
2018-03-15T05:28:42.874Z,17.93
2018-03-15T05:31:10.529Z,15.67
2018-03-15T05:33:38.197Z,20.07
2018-03-15T05:36:05.772Z,18.57
2018-03-15T05:38:33.389Z,17.50
2018-03-15T05:41:01.189Z,17.87
2018-03-15T05:43:28.853Z,16.23
2018-03-15T05:45:56.603Z,17.07
2018-03-15T05:48:24.195Z,15.93
2018-03-15T05:50:51.840Z,15.33
2018-03-15T05:53:19.432Z,14.40
2018-03-15T05:55:47.165Z,13.70
2018-03-15T05:58:14.826Z,14.43
2018-03-15T06:00:42.535Z,16.50
2018-03-15T06:03:10.154Z,14.87
2018-03-15T06:05:37.828Z,15.83
2018-03-15T06:08:05.415Z,14.70
2018-03-15T06:10:33.357Z,14.37
2018-03-15T06:13:00.942Z,16.13
2018-03-15T06:15:28.670Z,11.53
2018-03-15T06:17:56.332Z,12.40
2018-03-15T06:20:24.005Z,17.53
2018-03-15T06:22:51.713Z,17.00
2018-03-15T06:25:19.534Z,18.33
2018-03-15T06:27:47.198Z,13.73
2018-03-15T06:30:14.926Z,15.30
2018-03-15T06:32:42.893Z,16.53
2018-03-15T06:35:10.582Z,15.47
2018-03-15T06:37:38.200Z,18.60
2018-03-15T06:40:05.904Z,17.80
2018-03-15T06:42:33.710Z,18.80
2018-03-15T06:45:01.555Z,14.50
2018-03-15T06:47:29.432Z,16.90
2018-03-15T06:49:57.389Z,15.27
2018-03-15T06:52:24.998Z,14.70
2018-03-15T06:54:52.720Z,13.37
2018-03-15T06:57:20.309Z,14.10
2018-03-15T06:59:48.007Z,13.13
2018-03-15T07:02:15.918Z,11.43
2018-03-15T07:04:43.501Z,15.30
2018-03-15T07:07:12.248Z,14.17
2018-03-15T07:09:39.912Z,14.27
2018-03-15T07:12:07.564Z,12.40
2018-03-15T07:14:35.159Z,8.30
2018-03-15T07:17:02.890Z,8.00
2018-03-15T07:19:30.551Z,7.23
2018-03-15T07:21:58.214Z,8.77
2018-03-15T07:24:25.951Z,9.50
2018-03-15T07:26:53.741Z,9.90
2018-03-15T07:29:21.466Z,11.23
2018-03-15T07:31:49.039Z,7.70
2018-03-15T07:34:16.617Z,7.77
2018-03-15T07:36:44.390Z,7.43
2018-03-15T07:39:12.054Z,6.70
2018-03-15T07:41:39.628Z,8.07
2018-03-15T07:44:07.236Z,9.13
2018-03-15T07:46:34.822Z,9.70
2018-03-15T07:49:02.498Z,6.73
2018-03-15T07:51:30.162Z,6.80
2018-03-15T07:53:57.735Z,7.10
2018-03-15T07:56:25.495Z,8.03
2018-03-15T07:58:53.802Z,6.90
2018-03-15T08:01:21.381Z,6.60
2018-03-15T08:03:48.943Z,8.50
2018-03-15T08:06:16.740Z,9.20
2018-03-15T08:08:44.326Z,7.87
2018-03-15T08:11:11.900Z,6.73
2018-03-15T08:13:39.591Z,8.00
2018-03-15T08:16:07.174Z,9.27
2018-03-15T08:18:35.070Z,6.50
2018-03-15T08:21:02.683Z,8.47
2018-03-15T08:23:30.292Z,7.50
2018-03-15T08:25:58.054Z,7.10
2018-03-15T08:28:25.720Z,5.77
2018-03-15T08:30:53.302Z,7.10
2018-03-15T08:33:20.954Z,6.93
2018-03-15T08:35:48.738Z,6.00
2018-03-15T08:38:16.306Z,6.63
2018-03-15T08:40:44.032Z,8.30
2018-03-15T08:43:11.640Z,6.00
2018-03-15T08:45:39.228Z,9.67
2018-03-15T08:48:06.813Z,6.27
2018-03-15T08:50:34.416Z,6.20
2018-03-15T08:53:01.986Z,5.83
2018-03-15T08:55:29.597Z,7.33
2018-03-15T08:57:57.213Z,7.63
2018-03-15T09:00:24.795Z,7.40
2018-03-15T09:02:52.382Z,6.57
2018-03-15T09:05:20.232Z,5.23
2018-03-15T09:07:47.703Z,6.73
2018-03-15T09:10:15.359Z,6.70
2018-03-15T09:12:42.966Z,6.60
2018-03-15T09:15:10.690Z,6.60
2018-03-15T09:17:38.351Z,6.80
2018-03-15T09:20:05.975Z,7.23
2018-03-15T09:22:33.551Z,6.80
2018-03-15T09:25:01.387Z,6.70
2018-03-15T09:27:29.207Z,7.27
2018-03-15T09:29:56.801Z,6.50
2018-03-15T09:32:24.419Z,7.00
2018-03-15T09:34:52.076Z,8.67
2018-03-15T09:37:19.687Z,6.53
2018-03-15T09:39:47.291Z,7.00
2018-03-15T09:42:14.928Z,8.57
2018-03-15T09:44:42.518Z,6.43
2018-03-15T09:47:10.111Z,6.10
2018-03-15T09:49:37.800Z,6.93
2018-03-15T09:52:05.414Z,6.03
2018-03-15T09:54:33.002Z,6.50
2018-03-15T09:57:00.662Z,7.03
2018-03-15T09:59:28.238Z,6.50
2018-03-15T10:01:55.863Z,6.40
2018-03-15T10:04:23.479Z,6.20
2018-03-15T10:06:51.079Z,7.13
2018-03-15T10:09:18.683Z,6.90
2018-03-15T10:11:46.283Z,7.47
2018-03-15T10:14:13.997Z,6.47
2018-03-15T10:16:41.608Z,6.40
2018-03-15T10:19:09.258Z,6.87
2018-03-15T10:21:36.877Z,8.23
2018-03-15T10:24:04.538Z,6.77
2018-03-15T10:26:32.181Z,6.97
2018-03-15T10:28:59.787Z,7.67
2018-03-15T10:31:27.364Z,6.47
2018-03-15T10:33:55.065Z,7.67
2018-03-15T10:36:22.697Z,9.33
2018-03-15T10:38:50.298Z,6.60
2018-03-15T10:41:17.937Z,6.73
2018-03-15T10:43:45.522Z,7.97
2018-03-15T10:46:13.173Z,7.50
2018-03-15T10:48:40.899Z,7.90
2018-03-15T10:51:08.598Z,6.10
2018-03-15T10:53:36.206Z,6.90
2018-03-15T10:56:03.840Z,7.00
2018-03-15T10:58:31.431Z,6.03
2018-03-15T11:01:04.673Z,6.90
2018-03-15T11:03:37.865Z,7.00
2018-03-15T11:06:10.558Z,7.50
2018-03-15T11:08:38.549Z,7.27
2018-03-15T11:11:06.283Z,7.17
2018-03-15T11:13:33.933Z,10.00
2018-03-15T11:16:01.574Z,7.77
2018-03-15T11:18:29.158Z,6.17
2018-03-15T11:20:56.793Z,7.10
2018-03-15T11:23:24.456Z,6.83
2018-03-15T11:25:52.240Z,7.00
2018-03-15T11:28:19.819Z,7.43
2018-03-15T11:30:47.431Z,6.83
2018-03-15T11:33:15.035Z,10.13
2018-03-15T11:35:42.647Z,6.20
2018-03-15T11:38:10.289Z,6.40
2018-03-15T11:40:37.903Z,5.70
2018-03-15T11:43:05.507Z,5.80
2018-03-15T11:45:33.134Z,5.67
2018-03-15T11:48:00.808Z,7.20
2018-03-15T11:50:28.427Z,5.63
2018-03-15T11:52:56.101Z,6.63
2018-03-15T11:55:23.775Z,5.93
2018-03-15T11:57:51.386Z,6.80
2018-03-15T12:00:19.237Z,7.00
2018-03-15T12:02:46.839Z,7.80
2018-03-15T12:05:14.448Z,7.53
2018-03-15T12:07:42.106Z,7.43
2018-03-15T12:10:09.706Z,8.53
2018-03-15T12:12:37.424Z,6.03
2018-03-15T12:15:05.273Z,6.87
2018-03-15T12:17:32.952Z,8.77
2018-03-15T12:20:00.521Z,8.63
2018-03-15T12:22:28.113Z,8.20
2018-03-15T12:24:55.690Z,6.27
2018-03-15T12:27:23.394Z,8.43
2018-03-15T12:29:51.003Z,10.57
2018-03-15T12:32:18.726Z,9.27
2018-03-15T12:34:46.386Z,8.50
2018-03-15T12:37:13.976Z,9.20
2018-03-15T12:39:41.546Z,8.53
2018-03-15T12:42:09.359Z,8.40
2018-03-15T12:44:37.006Z,8.33
2018-03-15T12:47:04.577Z,7.77
2018-03-15T12:49:32.183Z,9.43
2018-03-15T12:51:59.800Z,8.57
2018-03-15T12:54:27.474Z,9.57
2018-03-15T12:56:55.133Z,9.10
2018-03-15T12:59:22.717Z,9.50
2018-03-15T13:01:50.348Z,8.53
2018-03-15T13:04:18.114Z,8.20
2018-03-15T13:06:45.796Z,9.30
2018-03-15T13:09:13.760Z,9.27
2018-03-15T13:11:41.399Z,8.17
2018-03-15T13:14:08.965Z,9.17
2018-03-15T13:16:37.064Z,7.83
2018-03-15T13:19:04.666Z,6.67
2018-03-15T13:21:32.231Z,8.00
2018-03-15T13:23:59.813Z,6.37
2018-03-15T13:26:30.735Z,9.60
2018-03-15T13:28:58.387Z,7.77
2018-03-15T13:31:26.101Z,6.93
2018-03-15T13:33:53.715Z,6.73
2018-03-15T13:36:21.280Z,6.50
2018-03-15T13:38:48.854Z,7.40
2018-03-15T13:41:16.531Z,8.60
2018-03-15T13:43:44.111Z,7.87
2018-03-15T13:46:11.870Z,10.57
2018-03-15T13:48:39.468Z,7.03
2018-03-15T13:51:07.050Z,8.80
2018-03-15T13:53:34.650Z,10.20
2018-03-15T13:56:02.267Z,8.03
2018-03-15T13:58:30.056Z,7.63
2018-03-15T14:00:57.616Z,8.50
2018-03-15T14:03:25.218Z,8.00
2018-03-15T14:05:52.837Z,8.27
2018-03-15T14:08:20.400Z,7.30
2018-03-15T14:10:49.723Z,8.50
2018-03-15T14:13:17.469Z,7.97
2018-03-15T14:15:47.543Z,11.57
2018-03-15T14:18:15.262Z,11.07
2018-03-15T14:20:42.932Z,12.17
2018-03-15T14:23:10.582Z,10.20
2018-03-15T14:25:38.150Z,8.43
2018-03-15T14:28:05.774Z,7.60
2018-03-15T14:30:33.681Z,8.60
2018-03-15T14:33:01.350Z,8.60
2018-03-15T14:35:29.006Z,8.07
2018-03-15T14:37:56.576Z,8.30
2018-03-15T14:40:24.361Z,8.20
2018-03-15T14:42:52.096Z,8.63
2018-03-15T14:45:19.851Z,10.50
2018-03-15T14:47:47.660Z,10.00
2018-03-15T14:50:15.285Z,11.30
2018-03-15T14:52:42.875Z,11.63
2018-03-15T14:55:10.466Z,8.80
2018-03-15T14:57:38.066Z,11.37
2018-03-15T15:00:05.821Z,12.83
2018-03-15T15:02:33.404Z,11.27
2018-03-15T15:05:01.023Z,11.73
2018-03-15T15:07:28.598Z,10.37
2018-03-15T15:09:56.172Z,9.80
2018-03-15T15:12:23.784Z,6.90
2018-03-15T15:14:51.343Z,9.17
2018-03-15T15:17:18.931Z,7.80
2018-03-15T15:19:46.536Z,9.20
2018-03-15T15:22:14.284Z,7.50
2018-03-15T15:24:41.938Z,8.77
2018-03-15T15:27:09.605Z,30.07
2018-03-15T15:29:37.266Z,15.83
2018-03-15T15:32:04.834Z,11.77
2018-03-15T15:34:32.440Z,11.33
2018-03-15T15:37:00.049Z,10.27
2018-03-15T15:39:27.629Z,12.60
2018-03-15T15:41:55.447Z,11.23
2018-03-15T15:44:23.004Z,10.77
2018-03-15T15:46:50.569Z,11.20
2018-03-15T15:49:18.188Z,11.77
2018-03-15T15:51:45.820Z,13.23
2018-03-15T15:54:13.463Z,10.70
2018-03-15T15:56:41.089Z,13.60
2018-03-15T15:59:08.787Z,13.33
2018-03-15T16:01:36.468Z,20.30
2018-03-15T16:04:04.323Z,13.07
2018-03-15T16:06:31.905Z,14.53
2018-03-15T16:08:59.515Z,12.53
2018-03-15T16:11:27.128Z,15.13
2018-03-15T16:13:55.166Z,15.90
2018-03-15T16:16:22.852Z,20.33
2018-03-15T16:18:50.482Z,21.07
2018-03-15T16:21:18.074Z,19.80
2018-03-15T16:23:45.889Z,22.00
2018-03-15T16:26:13.692Z,22.97
2018-03-15T16:28:41.390Z,326.03
2018-03-15T16:31:08.978Z,209.53
2018-03-15T16:33:36.694Z,116.43
2018-03-15T16:36:04.279Z,77.20
2018-03-15T16:38:31.852Z,53.80
2018-03-15T16:40:59.862Z,41.10
2018-03-15T16:43:27.749Z,23.70
2018-03-15T16:45:55.307Z,17.83
2018-03-15T16:48:23.077Z,19.40
2018-03-15T16:50:50.738Z,14.87
2018-03-15T16:53:18.343Z,13.17
2018-03-15T16:55:45.962Z,13.17
2018-03-15T16:58:13.571Z,14.30
2018-03-15T17:00:41.181Z,21.70
2018-03-15T17:03:08.832Z,17.10
2018-03-15T17:05:36.413Z,22.27
2018-03-15T17:08:04.158Z,12.77
2018-03-15T17:10:31.832Z,18.40
2018-03-15T17:12:59.473Z,16.83
2018-03-15T17:15:27.058Z,21.20
2018-03-15T17:17:54.657Z,20.00
2018-03-15T17:20:22.274Z,16.73
2018-03-15T17:22:49.918Z,15.13
2018-03-15T17:25:17.520Z,14.30
2018-03-15T17:27:45.242Z,12.37
2018-03-15T17:30:12.827Z,15.03
2018-03-15T17:32:40.492Z,13.60
2018-03-15T17:35:08.076Z,24.67
2018-03-15T17:37:35.659Z,28.17
2018-03-15T17:40:03.348Z,16.10
2018-03-15T17:42:30.931Z,14.80
2018-03-15T17:44:58.516Z,12.57
2018-03-15T17:47:26.151Z,15.23
2018-03-15T17:49:53.731Z,13.80
2018-03-15T17:52:21.308Z,13.47
2018-03-15T17:54:49.120Z,12.70
2018-03-15T17:57:16.000Z,14.37
2018-03-15T17:59:43.642Z,13.63
2018-03-15T18:02:11.286Z,12.53
2018-03-15T18:04:39.050Z,12.27
2018-03-15T18:07:06.733Z,13.50
2018-03-15T18:09:34.350Z,16.43
2018-03-15T18:12:01.935Z,13.50
2018-03-15T18:14:29.514Z,20.73
2018-03-15T18:16:57.129Z,17.07
2018-03-15T18:19:24.696Z,17.90
2018-03-15T18:21:52.486Z,22.67
2018-03-15T18:24:20.132Z,25.20
2018-03-15T18:26:47.722Z,24.47
2018-03-15T18:29:15.356Z,17.63
2018-03-15T18:31:43.097Z,19.40
2018-03-15T18:34:10.798Z,18.87
2018-03-15T18:36:38.388Z,20.97
2018-03-15T18:39:06.027Z,19.97
2018-03-15T18:41:33.611Z,23.10
2018-03-15T18:44:01.209Z,20.40
2018-03-15T18:46:28.897Z,16.27
2018-03-15T18:48:56.473Z,33.10
2018-03-15T18:51:24.409Z,26.03
2018-03-15T18:53:52.306Z,26.87
2018-03-15T18:56:19.974Z,24.70
2018-03-15T18:58:47.718Z,20.67
2018-03-15T19:01:15.508Z,25.17
2018-03-15T19:03:43.075Z,25.23
2018-03-15T19:06:10.814Z,21.47
2018-03-15T19:08:38.431Z,20.53
2018-03-15T19:11:06.048Z,19.30
2018-03-15T19:13:33.620Z,29.20
2018-03-15T19:16:01.232Z,22.73
2018-03-15T19:18:28.809Z,22.13
2018-03-15T19:20:56.376Z,24.83
2018-03-15T19:23:23.973Z,23.07
2018-03-15T19:25:51.561Z,19.77
2018-03-15T19:28:19.172Z,23.27
2018-03-15T19:30:46.811Z,23.80
2018-03-15T19:33:14.505Z,21.03
2018-03-15T19:35:42.151Z,17.80
2018-03-15T19:38:09.767Z,19.17
2018-03-15T19:40:37.484Z,18.50
2018-03-15T19:43:05.130Z,23.20
2018-03-15T19:45:32.733Z,20.10
2018-03-15T19:48:00.303Z,19.70
2018-03-15T19:50:27.879Z,21.00
2018-03-15T19:52:55.529Z,22.90
2018-03-15T19:55:23.257Z,27.50
2018-03-15T19:57:50.826Z,29.00
2018-03-15T20:00:18.530Z,35.30
2018-03-15T20:02:46.137Z,32.60
2018-03-15T20:05:13.699Z,51.93
2018-03-15T20:07:41.296Z,55.17
2018-03-15T20:10:08.861Z,57.17
2018-03-15T20:12:36.428Z,56.93
2018-03-15T20:15:04.043Z,37.53
2018-03-15T20:17:31.608Z,41.20
2018-03-15T20:19:59.172Z,40.53
2018-03-15T20:22:32.436Z,36.50
2018-03-15T20:25:00.006Z,27.00
2018-03-15T20:27:33.307Z,40.47
2018-03-15T20:30:00.886Z,34.10
2018-03-15T20:32:34.034Z,38.80
2018-03-15T20:35:01.607Z,52.60
2018-03-15T20:37:29.203Z,30.40
2018-03-15T20:40:02.251Z,34.07
2018-03-15T20:42:29.816Z,43.13
2018-03-15T20:44:57.396Z,36.90
2018-03-15T20:47:30.609Z,35.07
2018-03-15T20:49:58.184Z,33.57
2018-03-15T20:52:25.760Z,25.03
2018-03-15T20:54:53.361Z,24.03
2018-03-15T20:57:20.940Z,23.57
2018-03-15T20:59:48.679Z,24.60
2018-03-15T21:02:16.268Z,24.45
2018-03-15T21:04:43.831Z,27.67
2018-03-15T21:07:11.395Z,28.30
2018-03-15T21:09:39.000Z,27.90
2018-03-15T21:12:06.563Z,23.37
2018-03-15T21:14:34.241Z,22.63
2018-03-15T21:17:01.818Z,26.10
2018-03-15T21:19:29.372Z,25.30
2018-03-15T21:21:57.222Z,22.30
2018-03-15T21:24:24.820Z,21.30
2018-03-15T21:26:52.475Z,20.67
2018-03-15T21:29:20.025Z,22.67
2018-03-15T21:31:47.630Z,20.57
2018-03-15T21:34:15.187Z,22.07
2018-03-15T21:36:42.762Z,20.03
2018-03-15T21:39:10.366Z,22.30
2018-03-15T21:41:37.931Z,23.03
2018-03-15T21:44:05.499Z,21.67
2018-03-15T21:46:33.108Z,22.90
2018-03-15T21:49:00.828Z,21.70
2018-03-15T21:51:28.398Z,23.50
2018-03-15T21:53:56.008Z,22.17
2018-03-15T21:56:23.680Z,25.97
2018-03-15T21:58:51.244Z,21.80
2018-03-15T22:01:18.856Z,20.93
2018-03-15T22:03:46.932Z,25.57
2018-03-15T22:06:14.546Z,20.63
2018-03-15T22:08:42.213Z,26.07
2018-03-15T22:11:09.804Z,25.30
2018-03-15T22:13:37.386Z,30.73
2018-03-15T22:16:05.014Z,26.10
2018-03-15T22:18:32.657Z,24.83
2018-03-15T22:21:00.217Z,26.03
2018-03-15T22:23:27.827Z,23.20
2018-03-15T22:25:55.417Z,25.20
2018-03-15T22:28:22.981Z,25.27
2018-03-15T22:30:50.590Z,28.57
2018-03-15T22:33:18.197Z,25.63
2018-03-15T22:35:45.853Z,22.37
2018-03-15T22:38:13.478Z,25.50
2018-03-15T22:40:41.032Z,28.87
2018-03-15T22:43:08.595Z,21.17
2018-03-15T22:45:36.198Z,22.10
2018-03-15T22:48:03.768Z,23.03
2018-03-15T22:50:31.346Z,23.33
2018-03-15T22:52:58.953Z,21.93
2018-03-15T22:55:26.554Z,25.33
2018-03-15T22:57:54.216Z,25.00
2018-03-15T23:00:21.828Z,27.33
2018-03-15T23:02:49.435Z,22.60
2018-03-15T23:05:17.280Z,22.83
2018-03-15T23:07:44.884Z,21.60
2018-03-15T23:10:12.442Z,24.17
2018-03-15T23:12:40.036Z,22.60
2018-03-15T23:15:07.656Z,24.10
2018-03-15T23:17:35.367Z,22.90
2018-03-15T23:20:02.934Z,22.10
2018-03-15T23:22:30.630Z,24.53
2018-03-15T23:24:58.214Z,21.93
2018-03-15T23:27:25.775Z,23.80
2018-03-15T23:29:53.371Z,23.20
2018-03-15T23:32:20.936Z,25.77
2018-03-15T23:34:48.523Z,23.87
2018-03-15T23:37:16.150Z,21.33
2018-03-15T23:39:43.719Z,25.30
2018-03-15T23:42:11.284Z,23.07
2018-03-15T23:44:38.889Z,21.13
2018-03-15T23:47:06.483Z,21.43
2018-03-15T23:49:34.060Z,20.63
2018-03-15T23:52:01.756Z,20.63
2018-03-15T23:54:29.418Z,22.27
2018-03-15T23:56:56.997Z,20.43
2018-03-15T23:59:24.761Z,21.40
